createdAt,value
2019-05-05T00:02:20.973Z,95.40
2019-05-05T00:04:54.893Z,94.80
2019-05-05T00:07:26.113Z,95.10
2019-05-05T00:09:55.377Z,94.50
2019-05-05T00:12:34.256Z,94.30
2019-05-05T00:15:06.408Z,94.40
2019-05-05T00:17:35.693Z,94.60
2019-05-05T00:20:08.177Z,94.40
2019-05-05T00:22:37.471Z,94.30
2019-05-05T00:25:08.141Z,94.20
2019-05-05T00:27:37.421Z,93.90
2019-05-05T00:30:07.238Z,94.20
2019-05-05T00:32:36.830Z,93.70
2019-05-05T00:35:07.641Z,93.50
2019-05-05T00:37:36.905Z,94.20
2019-05-05T00:40:07.157Z,94.20
2019-05-05T00:42:36.801Z,94.20
2019-05-05T00:45:07.421Z,94.30
2019-05-05T00:47:47.581Z,94.30
2019-05-05T00:50:18.922Z,93.90
2019-05-05T00:52:48.173Z,93.80
2019-05-05T00:55:17.448Z,93.70
2019-05-05T00:57:46.717Z,93.90
2019-05-05T01:00:20.715Z,94.20
2019-05-05T01:02:51.794Z,95.10
2019-05-05T01:05:31.453Z,95.60
2019-05-05T01:08:00.721Z,95.50
2019-05-05T01:10:30.341Z,95.40
2019-05-05T01:13:00.053Z,95.30
2019-05-05T01:15:29.802Z,95.10
2019-05-05T01:18:02.086Z,95.00
2019-05-05T01:20:30.051Z,95.30
2019-05-05T01:22:59.611Z,95.40
2019-05-05T01:25:28.965Z,95.30
2019-05-05T01:27:58.245Z,95.30
2019-05-05T01:30:31.946Z,94.80
2019-05-05T01:33:14.854Z,94.50
2019-05-05T01:35:44.774Z,94.60
2019-05-05T01:38:27.858Z,94.20
2019-05-05T01:41:01.509Z,94.20
2019-05-05T01:43:31.089Z,94.40
2019-05-05T01:46:00.691Z,94.10
2019-05-05T01:48:29.958Z,94.00
2019-05-05T01:50:59.226Z,93.90
2019-05-05T01:53:28.802Z,93.40
2019-05-05T01:55:58.142Z,93.60
2019-05-05T01:58:27.482Z,93.30
2019-05-05T02:00:56.762Z,93.10
2019-05-05T02:03:26.317Z,92.90
2019-05-05T02:05:55.957Z,93.10
2019-05-05T02:08:25.229Z,92.90
2019-05-05T02:10:54.895Z,93.00
2019-05-05T02:13:25.152Z,92.80
2019-05-05T02:15:55.308Z,93.00
2019-05-05T02:18:25.409Z,92.80
2019-05-05T02:21:00.620Z,93.20
2019-05-05T02:23:29.887Z,93.70
2019-05-05T02:25:59.235Z,94.40
2019-05-05T02:28:30.485Z,94.60
2019-05-05T02:31:05.611Z,94.40
2019-05-05T02:33:35.561Z,94.60
2019-05-05T02:36:05.659Z,95.00
2019-05-05T02:38:35.668Z,94.80
2019-05-05T02:41:05.535Z,94.60
2019-05-05T02:43:36.089Z,94.70
2019-05-05T02:46:25.367Z,94.70
2019-05-05T02:48:57.534Z,94.60
2019-05-05T02:51:28.660Z,93.70
2019-05-05T02:54:00.537Z,93.50
2019-05-05T02:56:34.881Z,93.60
2019-05-05T02:59:07.628Z,94.00
2019-05-05T03:01:38.892Z,94.00
2019-05-05T03:04:09.373Z,94.20
2019-05-05T03:06:43.679Z,94.00
2019-05-05T03:09:14.658Z,93.50
2019-05-05T03:11:45.713Z,93.60
2019-05-05T03:14:16.706Z,93.70
2019-05-05T03:16:46.237Z,93.90
2019-05-05T03:19:15.987Z,93.90
2019-05-05T03:21:45.393Z,94.00
2019-05-05T03:24:15.105Z,93.90
2019-05-05T03:26:44.500Z,94.40
2019-05-05T03:29:15.734Z,94.40
2019-05-05T03:31:46.064Z,94.40
2019-05-05T03:34:16.718Z,94.90
2019-05-05T03:36:46.476Z,94.90
2019-05-05T03:39:18.061Z,94.80
2019-05-05T03:41:59.167Z,94.80
2019-05-05T03:44:44.118Z,94.50
2019-05-05T03:47:14.059Z,94.50
2019-05-05T03:49:44.261Z,94.10
2019-05-05T03:52:14.577Z,94.80
2019-05-05T03:54:44.906Z,94.80
2019-05-05T03:57:14.749Z,94.70
2019-05-05T03:59:45.061Z,95.00
2019-05-05T04:02:15.968Z,95.10
2019-05-05T04:04:54.818Z,95.70
2019-05-05T04:07:25.041Z,96.00
2019-05-05T04:09:54.411Z,96.00
2019-05-05T04:12:24.293Z,95.80
2019-05-05T04:14:54.889Z,95.60
2019-05-05T04:17:25.804Z,95.80
2019-05-05T04:19:57.798Z,96.10
2019-05-05T04:22:29.772Z,96.00
2019-05-05T04:24:59.057Z,96.20
2019-05-05T04:27:28.329Z,96.70
2019-05-05T04:29:57.966Z,96.50
2019-05-05T04:32:27.573Z,96.80
2019-05-05T04:34:56.853Z,97.00
2019-05-05T04:37:26.126Z,97.00
2019-05-05T04:39:55.427Z,97.00
2019-05-05T04:42:24.982Z,97.20
2019-05-05T04:44:54.274Z,97.00
2019-05-05T04:47:31.473Z,96.90
2019-05-05T04:50:05.338Z,96.40
2019-05-05T04:52:34.989Z,96.60
2019-05-05T04:55:06.130Z,96.70
2019-05-05T04:57:35.543Z,97.30
2019-05-05T05:00:05.999Z,97.00
2019-05-05T05:02:36.919Z,97.10
2019-05-05T05:05:08.825Z,97.50
2019-05-05T05:07:38.121Z,97.30
2019-05-05T05:10:07.835Z,97.30
2019-05-05T05:12:37.479Z,97.30
2019-05-05T05:15:07.293Z,97.60
2019-05-05T05:17:38.209Z,97.50
2019-05-05T05:20:08.250Z,98.10
2019-05-05T05:22:37.528Z,98.10
2019-05-05T05:25:07.181Z,98.10
2019-05-05T05:27:36.464Z,97.40
2019-05-05T05:30:07.002Z,97.60
2019-05-05T05:32:36.285Z,96.40
2019-05-05T05:35:07.197Z,97.00
2019-05-05T05:37:36.477Z,97.50
2019-05-05T05:40:08.557Z,97.40
2019-05-05T05:42:38.108Z,98.10
2019-05-05T05:45:23.674Z,97.70
2019-05-05T05:48:14.231Z,97.70
2019-05-05T05:50:45.041Z,97.50
2019-05-05T05:53:14.321Z,97.80
2019-05-05T05:55:44.801Z,97.30
2019-05-05T05:58:14.665Z,97.70
2019-05-05T06:00:44.398Z,97.30
2019-05-05T06:03:14.231Z,97.00
2019-05-05T06:05:43.815Z,97.90
2019-05-05T06:08:14.106Z,97.60
2019-05-05T06:10:44.376Z,97.50
2019-05-05T06:13:15.377Z,96.70
2019-05-05T06:15:44.769Z,97.00
2019-05-05T06:18:14.504Z,97.50
2019-05-05T06:20:44.699Z,97.20
2019-05-05T06:23:14.846Z,96.50
2019-05-05T06:25:44.826Z,97.70
2019-05-05T06:28:14.673Z,98.00
2019-05-05T06:30:44.491Z,97.80
2019-05-05T06:33:15.004Z,97.60
2019-05-05T06:35:44.621Z,98.30
2019-05-05T06:38:13.981Z,98.20
2019-05-05T06:40:44.886Z,98.60
2019-05-05T06:43:15.809Z,96.90
2019-05-05T06:45:53.529Z,97.00
2019-05-05T06:48:24.029Z,97.40
2019-05-05T06:50:54.419Z,96.80
2019-05-05T06:53:23.991Z,97.50
2019-05-05T06:55:54.299Z,97.10
2019-05-05T06:58:24.241Z,98.20
2019-05-05T07:00:54.937Z,97.80
2019-05-05T07:03:24.546Z,98.40
2019-05-05T07:05:54.154Z,98.40
2019-05-05T07:08:24.386Z,98.70
2019-05-05T07:10:54.850Z,99.00
2019-05-05T07:13:25.461Z,99.60
2019-05-05T07:15:54.729Z,99.80
2019-05-05T07:18:24.775Z,99.60
2019-05-05T07:20:54.642Z,99.60
2019-05-05T07:23:24.615Z,99.60
2019-05-05T07:25:54.996Z,99.90
2019-05-05T07:28:24.550Z,99.90
2019-05-05T07:30:54.748Z,99.70
2019-05-05T07:33:24.553Z,99.60
2019-05-05T07:36:14.410Z,99.70
2019-05-05T07:38:44.208Z,99.90
2019-05-05T07:41:14.125Z,99.40
2019-05-05T07:43:43.888Z,99.90
2019-05-05T07:46:13.668Z,99.20
2019-05-05T07:48:44.230Z,99.10
2019-05-05T07:51:14.269Z,98.10
2019-05-05T07:53:44.913Z,98.10
2019-05-05T07:56:14.612Z,98.00
2019-05-05T07:58:44.206Z,98.40
2019-05-05T08:01:14.263Z,97.50
2019-05-05T08:03:44.545Z,97.80
2019-05-05T08:06:14.694Z,93.50
2019-05-05T08:08:44.565Z,93.70
2019-05-05T08:11:14.695Z,93.40
2019-05-05T08:13:44.821Z,94.70
2019-05-05T08:16:15.732Z,95.30
2019-05-05T08:18:55.409Z,95.40
2019-05-05T08:21:24.770Z,95.50
2019-05-05T08:23:55.683Z,95.50
2019-05-05T08:26:44.076Z,96.40
2019-05-05T08:29:34.553Z,96.80
2019-05-05T08:32:05.845Z,95.20
2019-05-05T08:34:35.442Z,94.30
2019-05-05T08:37:05.037Z,93.10
2019-05-05T08:39:34.656Z,91.70
2019-05-05T08:42:04.480Z,90.00
2019-05-05T08:44:34.418Z,89.50
2019-05-05T08:47:04.565Z,87.40
2019-05-05T08:49:34.810Z,87.00
2019-05-05T08:52:04.633Z,86.00
2019-05-05T08:54:34.518Z,86.40
2019-05-05T08:57:04.434Z,86.70
2019-05-05T08:59:33.901Z,85.70
2019-05-05T09:02:04.551Z,87.30
2019-05-05T09:04:34.128Z,87.40
2019-05-05T09:07:05.054Z,89.10
2019-05-05T09:09:35.578Z,89.30
2019-05-05T09:12:05.181Z,87.70
2019-05-05T09:14:34.679Z,86.70
2019-05-05T09:17:05.096Z,86.10
2019-05-05T09:19:34.741Z,87.00
2019-05-05T09:22:06.730Z,86.40
2019-05-05T09:24:39.549Z,84.40
2019-05-05T09:27:16.297Z,82.90
2019-05-05T09:29:48.269Z,79.80
2019-05-05T09:32:17.559Z,80.50
2019-05-05T09:34:46.900Z,79.00
2019-05-05T09:37:16.180Z,80.40
2019-05-05T09:39:45.453Z,81.80
2019-05-05T09:42:14.771Z,83.80
2019-05-05T09:44:44.104Z,85.20
2019-05-05T09:47:14.490Z,86.40
2019-05-05T09:49:44.682Z,86.70
2019-05-05T09:52:14.478Z,86.50
2019-05-05T09:54:44.000Z,85.90
2019-05-05T09:57:14.708Z,84.60
2019-05-05T09:59:44.459Z,83.80
2019-05-05T10:02:13.785Z,83.90
2019-05-05T10:04:44.159Z,82.80
2019-05-05T10:07:13.881Z,82.10
2019-05-05T10:09:43.877Z,81.20
2019-05-05T10:12:13.409Z,81.90
2019-05-05T10:14:44.760Z,79.90
2019-05-05T10:17:14.178Z,79.60
2019-05-05T10:19:44.127Z,78.10
2019-05-05T10:22:14.998Z,77.30
2019-05-05T10:24:57.381Z,76.10
2019-05-05T10:27:25.936Z,76.60
2019-05-05T10:29:55.602Z,74.70
2019-05-05T10:32:25.208Z,76.20
2019-05-05T10:35:04.173Z,75.60
2019-05-05T10:37:34.696Z,74.60
2019-05-05T10:40:06.309Z,73.70
2019-05-05T10:42:50.778Z,72.40
2019-05-05T10:45:24.222Z,73.00
2019-05-05T10:47:53.995Z,74.60
2019-05-05T10:50:24.633Z,73.20
2019-05-05T10:52:54.422Z,72.40
2019-05-05T10:55:24.045Z,70.80
2019-05-05T10:57:54.426Z,71.60
2019-05-05T11:00:38.862Z,71.40
2019-05-05T11:03:08.442Z,71.30
2019-05-05T11:05:38.069Z,72.80
2019-05-05T11:08:07.413Z,75.10
2019-05-05T11:10:36.938Z,78.10
2019-05-05T11:13:06.661Z,80.20
2019-05-05T11:15:35.945Z,79.50
2019-05-05T11:18:05.566Z,77.50
2019-05-05T11:20:35.169Z,79.60
2019-05-05T11:23:04.966Z,78.90
2019-05-05T11:25:34.677Z,81.40
2019-05-05T11:28:05.752Z,85.80
2019-05-05T11:30:38.833Z,85.40
2019-05-05T11:33:19.281Z,88.40
2019-05-05T11:35:56.581Z,87.70
2019-05-05T11:38:25.858Z,86.60
2019-05-05T11:40:55.205Z,87.40
2019-05-05T11:43:24.876Z,87.40
2019-05-05T11:45:54.654Z,81.50
2019-05-05T11:48:24.210Z,85.30
2019-05-05T11:50:54.745Z,81.70
2019-05-05T11:53:25.275Z,80.60
2019-05-05T11:55:55.285Z,83.60
2019-05-05T11:58:24.889Z,78.30
2019-05-05T12:00:54.650Z,78.70
2019-05-05T12:03:24.318Z,77.10
2019-05-05T12:05:55.560Z,73.80
2019-05-05T12:08:24.830Z,74.60
2019-05-05T12:11:01.051Z,69.80
2019-05-05T12:13:30.334Z,68.90
2019-05-05T12:16:01.265Z,70.50
2019-05-05T12:18:34.290Z,67.20
2019-05-05T12:21:05.066Z,68.90
2019-05-05T12:23:36.267Z,69.60
2019-05-05T12:26:25.728Z,68.90
2019-05-05T12:28:56.643Z,69.10
2019-05-05T12:31:27.797Z,67.40
2019-05-05T12:33:57.849Z,68.50
2019-05-05T12:36:27.128Z,68.30
2019-05-05T12:38:56.410Z,68.20
2019-05-05T12:41:26.761Z,66.90
2019-05-05T12:43:56.057Z,68.00
2019-05-05T12:46:30.129Z,68.30
2019-05-05T12:49:01.037Z,68.90
2019-05-05T12:51:30.333Z,66.10
2019-05-05T12:53:59.898Z,64.90
2019-05-05T12:56:29.503Z,65.00
2019-05-05T12:58:59.317Z,65.50
2019-05-05T13:01:33.652Z,65.70
2019-05-05T13:04:04.317Z,66.20
2019-05-05T13:06:34.568Z,65.50
2019-05-05T13:09:06.129Z,65.50
2019-05-05T13:11:36.262Z,66.40
2019-05-05T13:14:06.489Z,67.40
2019-05-05T13:16:36.107Z,66.40
2019-05-05T13:19:07.034Z,66.10
2019-05-05T13:21:56.409Z,67.70
2019-05-05T13:24:44.053Z,70.40
2019-05-05T13:27:24.881Z,72.80
2019-05-05T13:29:55.477Z,75.40
2019-05-05T13:32:24.870Z,75.90
2019-05-05T13:34:54.697Z,77.70
2019-05-05T13:37:25.213Z,78.60
2019-05-05T13:39:54.485Z,77.90
2019-05-05T13:42:24.345Z,78.80
2019-05-05T13:44:56.879Z,79.30
2019-05-05T13:47:26.221Z,78.60
2019-05-05T13:49:57.141Z,79.10
2019-05-05T13:52:26.477Z,76.60
2019-05-05T13:54:55.757Z,76.50
2019-05-05T13:57:25.343Z,75.90
2019-05-05T13:59:54.710Z,76.10
2019-05-05T14:02:24.604Z,74.90
2019-05-05T14:04:55.381Z,74.10
2019-05-05T14:07:24.655Z,70.60
2019-05-05T14:09:55.055Z,71.10
2019-05-05T14:12:24.728Z,71.80
2019-05-05T14:14:54.610Z,71.10
2019-05-05T14:17:24.086Z,71.30
2019-05-05T14:20:02.483Z,71.70
2019-05-05T14:22:24.635Z,71.50
2019-05-05T14:24:58.450Z,71.60
2019-05-05T14:27:27.903Z,70.90
2019-05-05T14:30:08.046Z,70.90
2019-05-05T14:32:39.176Z,71.50
2019-05-05T14:35:27.179Z,71.00
2019-05-05T14:38:01.014Z,71.30
2019-05-05T14:40:30.301Z,71.30
2019-05-05T14:42:59.569Z,71.70
2019-05-05T14:45:28.999Z,71.30
2019-05-05T14:47:58.298Z,71.20
2019-05-05T14:50:27.577Z,69.90
2019-05-05T14:52:57.169Z,70.60
2019-05-05T14:55:26.454Z,68.40
2019-05-05T14:57:56.407Z,68.80
2019-05-05T15:00:26.641Z,68.10
2019-05-05T15:02:56.219Z,68.00
2019-05-05T15:05:44.394Z,68.10
2019-05-05T15:08:15.430Z,68.00
2019-05-05T15:11:03.523Z,68.50
2019-05-05T15:13:33.633Z,67.70
2019-05-05T15:16:04.039Z,67.90
2019-05-05T15:18:34.599Z,68.30
2019-05-05T15:21:04.311Z,67.60
2019-05-05T15:23:34.509Z,68.50
2019-05-05T15:26:04.514Z,69.90
2019-05-05T15:28:34.291Z,71.80
2019-05-05T15:31:03.877Z,68.90
2019-05-05T15:33:33.652Z,68.50
2019-05-05T15:36:04.429Z,68.50
2019-05-05T15:38:34.872Z,68.80
2019-05-05T15:41:04.740Z,69.50
2019-05-05T15:43:34.369Z,70.90
2019-05-05T15:46:04.459Z,70.40
2019-05-05T15:48:34.091Z,70.30
2019-05-05T15:51:04.196Z,70.00
2019-05-05T15:53:33.861Z,69.40
2019-05-05T15:56:04.562Z,69.70
2019-05-05T15:58:34.447Z,69.50
2019-05-05T16:01:04.764Z,69.70
2019-05-05T16:03:34.445Z,71.10
2019-05-05T16:06:03.896Z,69.70
2019-05-05T16:08:33.968Z,69.80
2019-05-05T16:11:04.550Z,68.70
2019-05-05T16:13:35.358Z,69.20
2019-05-05T16:16:15.491Z,68.60
2019-05-05T16:19:01.951Z,70.60
2019-05-05T16:21:27.290Z,72.50
2019-05-05T16:23:58.230Z,78.50
2019-05-05T16:26:27.501Z,80.80
2019-05-05T16:28:57.115Z,82.10
2019-05-05T16:31:27.760Z,82.80
2019-05-05T16:33:57.280Z,85.90
2019-05-05T16:36:26.555Z,84.80
2019-05-05T16:38:55.881Z,83.50
2019-05-05T16:41:25.141Z,81.70
2019-05-05T16:43:54.657Z,83.40
2019-05-05T16:46:24.001Z,81.60
2019-05-05T16:48:54.136Z,80.60
2019-05-05T16:51:25.430Z,81.10
2019-05-05T16:53:56.555Z,79.50
2019-05-05T16:56:26.025Z,80.60
2019-05-05T16:58:55.309Z,80.60
2019-05-05T17:01:24.581Z,79.00
2019-05-05T17:03:54.339Z,78.80
2019-05-05T17:06:24.391Z,79.40
2019-05-05T17:08:53.750Z,79.00
2019-05-05T17:11:24.541Z,80.40
2019-05-05T17:13:59.581Z,79.00
2019-05-05T17:16:45.501Z,80.80
2019-05-05T17:19:16.825Z,77.90
2019-05-05T17:21:53.799Z,79.00
2019-05-05T17:24:24.031Z,76.50
2019-05-05T17:26:54.914Z,77.00
2019-05-05T17:29:24.679Z,76.70
2019-05-05T17:31:54.210Z,75.40
2019-05-05T17:34:24.663Z,74.10
2019-05-05T17:36:54.209Z,73.20
2019-05-05T17:39:25.261Z,72.60
2019-05-05T17:41:56.603Z,72.90
2019-05-05T17:44:36.505Z,72.40
2019-05-05T17:47:07.428Z,72.40
2019-05-05T17:49:56.693Z,70.70
2019-05-05T17:52:27.611Z,71.90
2019-05-05T17:54:57.661Z,71.00
2019-05-05T17:57:26.928Z,71.20
2019-05-05T17:59:56.216Z,71.00
2019-05-05T18:02:25.501Z,71.20
2019-05-05T18:04:54.781Z,71.40
2019-05-05T18:07:25.697Z,72.10
2019-05-05T18:09:56.937Z,71.30
2019-05-05T18:12:36.995Z,72.80
2019-05-05T18:15:15.939Z,71.90
2019-05-05T18:17:45.631Z,72.30
2019-05-05T18:20:14.995Z,72.80
2019-05-05T18:22:44.266Z,73.90
2019-05-05T18:25:14.325Z,74.00
2019-05-05T18:27:44.033Z,74.70
2019-05-05T18:30:13.547Z,75.30
2019-05-05T18:32:42.812Z,76.20
2019-05-05T18:35:13.558Z,77.30
2019-05-05T18:37:43.599Z,78.60
2019-05-05T18:40:14.561Z,78.90
2019-05-05T18:42:44.637Z,78.60
2019-05-05T18:45:16.536Z,79.50
2019-05-05T18:47:45.831Z,79.00
2019-05-05T18:50:15.449Z,78.20
2019-05-05T18:52:47.138Z,77.50
2019-05-05T18:55:15.789Z,76.40
2019-05-05T18:57:45.078Z,76.00
2019-05-05T19:00:16.426Z,76.40
2019-05-05T19:02:56.707Z,76.50
2019-05-05T19:05:30.364Z,76.30
2019-05-05T19:08:14.312Z,77.10
2019-05-05T19:10:43.922Z,76.70
2019-05-05T19:13:13.768Z,77.60
2019-05-05T19:15:43.213Z,77.10
2019-05-05T19:18:14.027Z,76.70
2019-05-05T19:20:57.171Z,77.20
2019-05-05T19:23:26.720Z,77.10
2019-05-05T19:25:56.191Z,76.50
2019-05-05T19:28:26.667Z,76.50
2019-05-05T19:30:55.933Z,76.00
2019-05-05T19:33:25.217Z,76.10
2019-05-05T19:35:54.749Z,76.60
2019-05-05T19:38:24.041Z,76.90
2019-05-05T19:40:56.290Z,76.40
2019-05-05T19:43:25.364Z,76.50
2019-05-05T19:45:55.229Z,76.50
2019-05-05T19:48:25.560Z,76.30
2019-05-05T19:50:56.477Z,77.80
2019-05-05T19:53:26.336Z,78.90
2019-05-05T19:55:56.239Z,78.70
2019-05-05T19:58:25.555Z,77.60
2019-05-05T20:00:56.505Z,78.40
2019-05-05T20:03:25.886Z,77.60
2019-05-05T20:05:55.345Z,77.50
2019-05-05T20:08:39.474Z,77.20
2019-05-05T20:10:55.830Z,78.30
2019-05-05T20:13:25.109Z,78.30
2019-05-05T20:16:01.860Z,78.30
2019-05-05T20:18:31.141Z,78.50
2019-05-05T20:21:04.164Z,78.80
2019-05-05T20:23:31.401Z,78.60
2019-05-05T20:26:04.046Z,78.10
2019-05-05T20:28:34.339Z,77.90
2019-05-05T20:31:03.784Z,77.90
2019-05-05T20:33:48.201Z,77.60
2019-05-05T20:36:19.115Z,77.80
2019-05-05T20:38:50.041Z,78.00
2019-05-05T20:41:20.857Z,77.50
2019-05-05T20:43:50.417Z,78.50
2019-05-05T20:46:19.698Z,78.20
2019-05-05T20:48:49.226Z,79.10
2019-05-05T20:51:18.570Z,79.20
2019-05-05T20:53:49.175Z,79.20
2019-05-05T20:56:19.081Z,79.00
2019-05-05T20:58:48.358Z,78.80
2019-05-05T21:01:17.624Z,79.20
2019-05-05T21:03:47.184Z,78.70
2019-05-05T21:06:17.529Z,79.00
2019-05-05T21:08:46.902Z,80.00
2019-05-05T21:11:16.420Z,80.20
2019-05-05T21:13:47.046Z,80.90
2019-05-05T21:16:16.658Z,80.90
2019-05-05T21:18:45.936Z,80.80
2019-05-05T21:21:16.855Z,82.60
2019-05-05T21:23:50.497Z,82.70
2019-05-05T21:26:23.381Z,81.60
2019-05-05T21:28:53.824Z,81.50
2019-05-05T21:31:24.046Z,81.50
2019-05-05T21:33:54.886Z,81.20
2019-05-05T21:36:24.482Z,81.30
2019-05-05T21:38:54.765Z,81.50
2019-05-05T21:41:24.572Z,81.40
2019-05-05T21:43:54.225Z,81.50
2019-05-05T21:46:24.124Z,81.60
2019-05-05T21:48:54.773Z,82.00
2019-05-05T21:51:41.666Z,81.90
2019-05-05T21:54:27.576Z,82.40
2019-05-05T21:57:01.489Z,81.90
2019-05-05T21:59:30.764Z,82.30
2019-05-05T22:02:00.441Z,82.90
2019-05-05T22:04:29.794Z,83.20
2019-05-05T22:06:59.306Z,82.90
2019-05-05T22:09:29.645Z,83.60
2019-05-05T22:11:58.972Z,83.30
2019-05-05T22:14:28.244Z,83.30
2019-05-05T22:16:57.521Z,84.00
2019-05-05T22:19:28.430Z,84.40
2019-05-05T22:22:08.166Z,84.60
2019-05-05T22:24:37.534Z,85.00
2019-05-05T22:27:06.811Z,85.20
2019-05-05T22:29:36.110Z,85.20
2019-05-05T22:32:06.290Z,85.40
2019-05-05T22:34:35.669Z,85.60
2019-05-05T22:37:08.896Z,85.80
2019-05-05T22:39:35.986Z,86.30
2019-05-05T22:42:05.269Z,86.20
2019-05-05T22:44:34.536Z,86.00
2019-05-05T22:47:04.687Z,86.20
2019-05-05T22:49:35.256Z,86.50
2019-05-05T22:52:04.538Z,86.70
2019-05-05T22:54:34.042Z,86.80
2019-05-05T22:57:04.623Z,86.90
2019-05-05T22:59:34.386Z,87.10
2019-05-05T23:02:04.068Z,87.40
2019-05-05T23:04:36.148Z,87.80
2019-05-05T23:07:09.868Z,87.50
2019-05-05T23:09:39.140Z,87.50
2019-05-05T23:12:08.416Z,87.30
2019-05-05T23:14:37.673Z,87.90
2019-05-05T23:17:26.257Z,87.50
2019-05-05T23:19:56.781Z,87.80
2019-05-05T23:22:34.838Z,88.00
2019-05-05T23:25:09.950Z,88.20
2019-05-05T23:27:48.877Z,88.20
2019-05-05T23:30:21.103Z,88.40
2019-05-05T23:32:50.373Z,88.30
2019-05-05T23:35:19.644Z,88.10
2019-05-05T23:37:48.913Z,88.20
2019-05-05T23:40:24.671Z,88.50
2019-05-05T23:42:54.408Z,88.20
2019-05-05T23:45:24.902Z,88.20
2019-05-05T23:47:55.633Z,88.10
2019-05-05T23:50:24.911Z,88.20
2019-05-05T23:52:54.766Z,88.20
2019-05-05T23:55:24.316Z,88.80
2019-05-05T23:57:54.811Z,88.60
